sensor_id;sensor_type;location;lat;lon;timestamp;temperature;humidity
8105;DHT22;4095;48.942;9.104;2023-10-31T00:01:11;14.30;99.90
8105;DHT22;4095;48.942;9.104;2023-10-31T00:03:36;14.30;99.90
8105;DHT22;4095;48.942;9.104;2023-10-31T00:06:02;14.20;99.90
8105;DHT22;4095;48.942;9.104;2023-10-31T00:08:28;14.20;99.90
8105;DHT22;4095;48.942;9.104;2023-10-31T00:10:53;14.20;99.90
8105;DHT22;4095;48.942;9.104;2023-10-31T00:13:19;14.10;99.90
8105;DHT22;4095;48.942;9.104;2023-10-31T00:15:44;14.20;99.90
8105;DHT22;4095;48.942;9.104;2023-10-31T00:18:10;14.20;99.90
8105;DHT22;4095;48.942;9.104;2023-10-31T00:20:35;14.10;99.90
8105;DHT22;4095;48.942;9.104;2023-10-31T00:23:01;14.10;99.90
8105;DHT22;4095;48.942;9.104;2023-10-31T00:25:26;14.10;99.90
8105;DHT22;4095;48.942;9.104;2023-10-31T00:27:52;14.10;99.90
8105;DHT22;4095;48.942;9.104;2023-10-31T00:30:17;14.10;99.90
8105;DHT22;4095;48.942;9.104;2023-10-31T00:32:43;14.00;99.90
8105;DHT22;4095;48.942;9.104;2023-10-31T00:35:08;13.90;99.90
8105;DHT22;4095;48.942;9.104;2023-10-31T00:37:34;13.90;99.90
8105;DHT22;4095;48.942;9.104;2023-10-31T00:40:01;13.80;99.90
8105;DHT22;4095;48.942;9.104;2023-10-31T00:42:26;13.70;99.90
8105;DHT22;4095;48.942;9.104;2023-10-31T00:44:52;13.70;99.90
8105;DHT22;4095;48.942;9.104;2023-10-31T00:47:17;13.60;99.90
8105;DHT22;4095;48.942;9.104;2023-10-31T00:49:43;13.60;99.90
8105;DHT22;4095;48.942;9.104;2023-10-31T00:52:09;13.50;99.90
8105;DHT22;4095;48.942;9.104;2023-10-31T00:54:34;13.40;99.90
8105;DHT22;4095;48.942;9.104;2023-10-31T00:57:00;13.40;99.90
8105;DHT22;4095;48.942;9.104;2023-10-31T00:59:25;13.30;99.90
8105;DHT22;4095;48.942;9.104;2023-10-31T01:01:51;13.30;99.90
8105;DHT22;4095;48.942;9.104;2023-10-31T01:04:16;13.20;99.90
8105;DHT22;4095;48.942;9.104;2023-10-31T01:06:42;13.20;99.90
8105;DHT22;4095;48.942;9.104;2023-10-31T01:09:11;13.20;99.90
8105;DHT22;4095;48.942;9.104;2023-10-31T01:11:37;13.10;99.90
8105;DHT22;4095;48.942;9.104;2023-10-31T01:14:03;13.20;99.90
8105;DHT22;4095;48.942;9.104;2023-10-31T01:16:28;13.20;99.90
8105;DHT22;4095;48.942;9.104;2023-10-31T01:18:54;13.10;99.90
8105;DHT22;4095;48.942;9.104;2023-10-31T01:21:20;13.20;99.90
8105;DHT22;4095;48.942;9.104;2023-10-31T01:23:45;13.10;99.90
8105;DHT22;4095;48.942;9.104;2023-10-31T01:26:11;13.10;99.90
8105;DHT22;4095;48.942;9.104;2023-10-31T01:28:36;13.10;99.90
8105;DHT22;4095;48.942;9.104;2023-10-31T01:31:02;13.10;99.90
8105;DHT22;4095;48.942;9.104;2023-10-31T01:33:27;13.00;99.90
8105;DHT22;4095;48.942;9.104;2023-10-31T01:35:53;13.00;99.90
8105;DHT22;4095;48.942;9.104;2023-10-31T01:38:18;12.90;99.90
8105;DHT22;4095;48.942;9.104;2023-10-31T01:40:44;12.90;99.90
8105;DHT22;4095;48.942;9.104;2023-10-31T01:43:29;12.90;99.90
8105;DHT22;4095;48.942;9.104;2023-10-31T01:45:54;12.90;99.90
8105;DHT22;4095;48.942;9.104;2023-10-31T01:48:20;12.90;99.90
8105;DHT22;4095;48.942;9.104;2023-10-31T01:50:46;12.80;99.90
8105;DHT22;4095;48.942;9.104;2023-10-31T01:53:12;12.80;99.90
8105;DHT22;4095;48.942;9.104;2023-10-31T01:55:37;12.80;99.90
8105;DHT22;4095;48.942;9.104;2023-10-31T01:58:03;12.80;99.90
8105;DHT22;4095;48.942;9.104;2023-10-31T02:00:28;12.80;99.90
8105;DHT22;4095;48.942;9.104;2023-10-31T02:02:54;12.80;99.90
8105;DHT22;4095;48.942;9.104;2023-10-31T02:05:20;12.80;99.90
8105;DHT22;4095;48.942;9.104;2023-10-31T02:07:46;12.80;99.90
8105;DHT22;4095;48.942;9.104;2023-10-31T02:10:12;12.80;99.90
8105;DHT22;4095;48.942;9.104;2023-10-31T02:12:37;12.80;99.90
8105;DHT22;4095;48.942;9.104;2023-10-31T02:15:03;12.90;99.90
8105;DHT22;4095;48.942;9.104;2023-10-31T02:17:29;12.90;99.90
8105;DHT22;4095;48.942;9.104;2023-10-31T02:19:55;12.90;99.90
8105;DHT22;4095;48.942;9.104;2023-10-31T02:22:22;12.90;99.90
8105;DHT22;4095;48.942;9.104;2023-10-31T02:24:48;12.90;99.90
8105;DHT22;4095;48.942;9.104;2023-10-31T02:27:13;12.90;99.90
8105;DHT22;4095;48.942;9.104;2023-10-31T02:29:39;12.90;99.90
8105;DHT22;4095;48.942;9.104;2023-10-31T02:32:06;12.80;99.90
8105;DHT22;4095;48.942;9.104;2023-10-31T02:34:31;12.80;99.90
8105;DHT22;4095;48.942;9.104;2023-10-31T02:36:57;12.80;99.90
8105;DHT22;4095;48.942;9.104;2023-10-31T02:39:23;12.80;99.90
8105;DHT22;4095;48.942;9.104;2023-10-31T02:41:48;12.70;99.90
8105;DHT22;4095;48.942;9.104;2023-10-31T02:44:15;12.70;99.90
8105;DHT22;4095;48.942;9.104;2023-10-31T02:46:41;12.70;99.90
8105;DHT22;4095;48.942;9.104;2023-10-31T02:49:06;12.70;99.90
8105;DHT22;4095;48.942;9.104;2023-10-31T02:51:34;12.70;99.90
8105;DHT22;4095;48.942;9.104;2023-10-31T02:53:59;12.70;99.90
8105;DHT22;4095;48.942;9.104;2023-10-31T02:56:25;12.70;99.90
8105;DHT22;4095;48.942;9.104;2023-10-31T02:58:51;12.60;99.90
8105;DHT22;4095;48.942;9.104;2023-10-31T03:01:16;12.60;99.90
8105;DHT22;4095;48.942;9.104;2023-10-31T03:03:43;12.60;99.90
8105;DHT22;4095;48.942;9.104;2023-10-31T03:06:08;12.60;99.90
8105;DHT22;4095;48.942;9.104;2023-10-31T03:08:34;12.60;99.90
8105;DHT22;4095;48.942;9.104;2023-10-31T03:10:59;12.60;99.90
8105;DHT22;4095;48.942;9.104;2023-10-31T03:13:25;12.60;99.90
8105;DHT22;4095;48.942;9.104;2023-10-31T03:15:50;12.60;99.90
8105;DHT22;4095;48.942;9.104;2023-10-31T03:18:16;12.50;99.90
8105;DHT22;4095;48.942;9.104;2023-10-31T03:20:45;12.60;99.90
8105;DHT22;4095;48.942;9.104;2023-10-31T03:23:12;12.60;99.90
8105;DHT22;4095;48.942;9.104;2023-10-31T03:25:37;12.60;99.90
8105;DHT22;4095;48.942;9.104;2023-10-31T03:28:03;12.70;99.90
8105;DHT22;4095;48.942;9.104;2023-10-31T03:30:29;12.70;99.90
8105;DHT22;4095;48.942;9.104;2023-10-31T03:32:54;12.80;99.90
8105;DHT22;4095;48.942;9.104;2023-10-31T03:35:20;12.80;99.90
8105;DHT22;4095;48.942;9.104;2023-10-31T03:37:45;12.80;99.90
8105;DHT22;4095;48.942;9.104;2023-10-31T03:40:11;12.80;99.90
8105;DHT22;4095;48.942;9.104;2023-10-31T03:42:37;12.80;99.90
8105;DHT22;4095;48.942;9.104;2023-10-31T03:45:02;12.80;99.90
8105;DHT22;4095;48.942;9.104;2023-10-31T03:47:28;12.80;99.90
8105;DHT22;4095;48.942;9.104;2023-10-31T03:49:53;12.80;99.90
8105;DHT22;4095;48.942;9.104;2023-10-31T03:52:19;12.90;99.90
8105;DHT22;4095;48.942;9.104;2023-10-31T03:54:45;12.90;99.90
8105;DHT22;4095;48.942;9.104;2023-10-31T03:57:10;12.90;99.90
8105;DHT22;4095;48.942;9.104;2023-10-31T03:59:37;12.90;99.90
8105;DHT22;4095;48.942;9.104;2023-10-31T04:02:03;13.00;99.90
8105;DHT22;4095;48.942;9.104;2023-10-31T04:04:28;12.90;99.90
8105;DHT22;4095;48.942;9.104;2023-10-31T04:06:54;12.90;99.90
8105;DHT22;4095;48.942;9.104;2023-10-31T04:09:19;13.00;99.90
8105;DHT22;4095;48.942;9.104;2023-10-31T04:11:45;13.00;99.90
8105;DHT22;4095;48.942;9.104;2023-10-31T04:14:10;12.90;99.90
8105;DHT22;4095;48.942;9.104;2023-10-31T04:16:40;12.90;99.90
8105;DHT22;4095;48.942;9.104;2023-10-31T04:19:11;12.90;99.90
8105;DHT22;4095;48.942;9.104;2023-10-31T04:21:37;12.80;99.90
8105;DHT22;4095;48.942;9.104;2023-10-31T04:24:03;12.80;99.90
8105;DHT22;4095;48.942;9.104;2023-10-31T04:26:29;12.80;99.90
8105;DHT22;4095;48.942;9.104;2023-10-31T04:28:54;12.90;99.90
8105;DHT22;4095;48.942;9.104;2023-10-31T04:31:20;12.80;99.90
8105;DHT22;4095;48.942;9.104;2023-10-31T04:33:45;12.90;99.90
8105;DHT22;4095;48.942;9.104;2023-10-31T04:36:11;13.00;99.90
8105;DHT22;4095;48.942;9.104;2023-10-31T04:38:36;12.90;99.90
8105;DHT22;4095;48.942;9.104;2023-10-31T04:41:03;12.90;99.90
8105;DHT22;4095;48.942;9.104;2023-10-31T04:43:29;12.80;99.90
8105;DHT22;4095;48.942;9.104;2023-10-31T04:45:54;12.80;99.90
8105;DHT22;4095;48.942;9.104;2023-10-31T04:48:20;12.80;99.90
8105;DHT22;4095;48.942;9.104;2023-10-31T04:50:45;12.70;99.90
8105;DHT22;4095;48.942;9.104;2023-10-31T04:53:11;12.70;99.90
8105;DHT22;4095;48.942;9.104;2023-10-31T04:55:37;12.70;99.90
8105;DHT22;4095;48.942;9.104;2023-10-31T04:58:02;12.70;99.90
8105;DHT22;4095;48.942;9.104;2023-10-31T05:00:28;12.70;99.90
8105;DHT22;4095;48.942;9.104;2023-10-31T05:02:53;12.70;99.90
8105;DHT22;4095;48.942;9.104;2023-10-31T05:05:19;12.70;99.90
8105;DHT22;4095;48.942;9.104;2023-10-31T05:07:44;12.70;99.90
8105;DHT22;4095;48.942;9.104;2023-10-31T05:10:10;12.60;99.90
8105;DHT22;4095;48.942;9.104;2023-10-31T05:12:36;12.60;99.90
8105;DHT22;4095;48.942;9.104;2023-10-31T05:15:02;12.50;99.90
8105;DHT22;4095;48.942;9.104;2023-10-31T05:17:28;12.50;99.90
8105;DHT22;4095;48.942;9.104;2023-10-31T05:19:53;12.50;99.90
8105;DHT22;4095;48.942;9.104;2023-10-31T05:22:19;12.50;99.90
8105;DHT22;4095;48.942;9.104;2023-10-31T05:24:44;12.50;99.90
8105;DHT22;4095;48.942;9.104;2023-10-31T05:27:10;12.50;99.90
8105;DHT22;4095;48.942;9.104;2023-10-31T05:29:38;12.50;99.90
8105;DHT22;4095;48.942;9.104;2023-10-31T05:32:03;12.40;99.90
8105;DHT22;4095;48.942;9.104;2023-10-31T05:34:29;12.40;99.90
8105;DHT22;4095;48.942;9.104;2023-10-31T05:36:54;12.50;99.90
8105;DHT22;4095;48.942;9.104;2023-10-31T05:39:20;12.40;99.90
8105;DHT22;4095;48.942;9.104;2023-10-31T05:41:46;12.30;99.90
8105;DHT22;4095;48.942;9.104;2023-10-31T05:44:11;12.30;99.90
8105;DHT22;4095;48.942;9.104;2023-10-31T05:46:40;12.40;99.90
8105;DHT22;4095;48.942;9.104;2023-10-31T05:49:07;12.40;99.90
8105;DHT22;4095;48.942;9.104;2023-10-31T05:51:33;12.40;99.90
8105;DHT22;4095;48.942;9.104;2023-10-31T05:53:59;12.40;99.90
8105;DHT22;4095;48.942;9.104;2023-10-31T05:56:25;12.50;99.90
8105;DHT22;4095;48.942;9.104;2023-10-31T05:58:50;12.50;99.90
8105;DHT22;4095;48.942;9.104;2023-10-31T06:01:16;12.50;99.90
8105;DHT22;4095;48.942;9.104;2023-10-31T06:03:42;12.50;99.90
8105;DHT22;4095;48.942;9.104;2023-10-31T06:06:11;12.50;99.90
8105;DHT22;4095;48.942;9.104;2023-10-31T06:08:38;12.60;99.90
8105;DHT22;4095;48.942;9.104;2023-10-31T06:11:04;12.60;99.90
8105;DHT22;4095;48.942;9.104;2023-10-31T06:13:30;12.50;99.90
8105;DHT22;4095;48.942;9.104;2023-10-31T06:15:57;12.50;99.90
8105;DHT22;4095;48.942;9.104;2023-10-31T06:18:23;12.60;99.90
8105;DHT22;4095;48.942;9.104;2023-10-31T06:20:49;12.70;99.90
8105;DHT22;4095;48.942;9.104;2023-10-31T06:23:14;12.60;99.90
8105;DHT22;4095;48.942;9.104;2023-10-31T06:25:40;12.60;99.90
8105;DHT22;4095;48.942;9.104;2023-10-31T06:28:05;12.60;99.90
8105;DHT22;4095;48.942;9.104;2023-10-31T06:30:31;12.60;99.90
8105;DHT22;4095;48.942;9.104;2023-10-31T06:32:57;12.60;99.90
8105;DHT22;4095;48.942;9.104;2023-10-31T06:35:23;12.60;99.90
8105;DHT22;4095;48.942;9.104;2023-10-31T06:37:54;12.60;99.90
8105;DHT22;4095;48.942;9.104;2023-10-31T06:40:19;12.60;99.90
8105;DHT22;4095;48.942;9.104;2023-10-31T06:42:45;12.50;99.90
8105;DHT22;4095;48.942;9.104;2023-10-31T06:45:10;12.50;99.90
8105;DHT22;4095;48.942;9.104;2023-10-31T06:47:36;12.50;99.90
8105;DHT22;4095;48.942;9.104;2023-10-31T06:50:02;12.50;99.90
8105;DHT22;4095;48.942;9.104;2023-10-31T06:52:28;12.60;99.90
8105;DHT22;4095;48.942;9.104;2023-10-31T06:54:53;12.50;99.90
8105;DHT22;4095;48.942;9.104;2023-10-31T06:57:19;12.60;99.90
8105;DHT22;4095;48.942;9.104;2023-10-31T06:59:44;12.70;99.90
8105;DHT22;4095;48.942;9.104;2023-10-31T07:02:11;12.70;99.90
8105;DHT22;4095;48.942;9.104;2023-10-31T07:04:37;12.80;99.90
8105;DHT22;4095;48.942;9.104;2023-10-31T07:07:02;12.80;99.90
8105;DHT22;4095;48.942;9.104;2023-10-31T07:09:28;12.70;99.90
8105;DHT22;4095;48.942;9.104;2023-10-31T07:11:54;12.80;99.90
8105;DHT22;4095;48.942;9.104;2023-10-31T07:14:20;12.80;99.90
8105;DHT22;4095;48.942;9.104;2023-10-31T07:16:47;12.80;99.90
8105;DHT22;4095;48.942;9.104;2023-10-31T07:19:13;12.80;99.90
8105;DHT22;4095;48.942;9.104;2023-10-31T07:21:39;12.90;99.90
8105;DHT22;4095;48.942;9.104;2023-10-31T07:24:04;13.00;99.90
8105;DHT22;4095;48.942;9.104;2023-10-31T07:26:30;13.00;99.90
8105;DHT22;4095;48.942;9.104;2023-10-31T07:28:56;13.10;99.90
8105;DHT22;4095;48.942;9.104;2023-10-31T07:31:21;13.10;99.90
8105;DHT22;4095;48.942;9.104;2023-10-31T07:33:47;13.10;99.90
8105;DHT22;4095;48.942;9.104;2023-10-31T07:36:13;13.20;99.90
8105;DHT22;4095;48.942;9.104;2023-10-31T07:38:38;13.20;99.90
8105;DHT22;4095;48.942;9.104;2023-10-31T07:41:04;13.20;99.90
8105;DHT22;4095;48.942;9.104;2023-10-31T07:43:29;13.20;99.90
8105;DHT22;4095;48.942;9.104;2023-10-31T07:45:55;13.30;99.90
8105;DHT22;4095;48.942;9.104;2023-10-31T07:48:21;13.30;99.90
8105;DHT22;4095;48.942;9.104;2023-10-31T07:50:46;13.20;99.90
8105;DHT22;4095;48.942;9.104;2023-10-31T07:53:12;13.20;99.90
8105;DHT22;4095;48.942;9.104;2023-10-31T07:55:37;13.30;99.90
8105;DHT22;4095;48.942;9.104;2023-10-31T07:58:03;13.30;99.90
8105;DHT22;4095;48.942;9.104;2023-10-31T08:00:28;13.30;99.90
8105;DHT22;4095;48.942;9.104;2023-10-31T08:02:54;13.40;99.90
8105;DHT22;4095;48.942;9.104;2023-10-31T08:05:19;13.50;99.90
8105;DHT22;4095;48.942;9.104;2023-10-31T08:07:45;13.50;99.90
8105;DHT22;4095;48.942;9.104;2023-10-31T08:10:11;13.60;99.90
8105;DHT22;4095;48.942;9.104;2023-10-31T08:12:36;13.60;99.90
8105;DHT22;4095;48.942;9.104;2023-10-31T08:15:02;13.70;99.90
8105;DHT22;4095;48.942;9.104;2023-10-31T08:17:28;13.70;99.90
8105;DHT22;4095;48.942;9.104;2023-10-31T08:19:53;13.80;99.90
8105;DHT22;4095;48.942;9.104;2023-10-31T08:22:19;13.80;99.90
8105;DHT22;4095;48.942;9.104;2023-10-31T08:24:44;13.90;99.90
8105;DHT22;4095;48.942;9.104;2023-10-31T08:27:10;13.90;99.90
8105;DHT22;4095;48.942;9.104;2023-10-31T08:29:36;14.00;99.90
8105;DHT22;4095;48.942;9.104;2023-10-31T08:32:02;14.10;99.90
8105;DHT22;4095;48.942;9.104;2023-10-31T08:34:27;14.20;99.90
8105;DHT22;4095;48.942;9.104;2023-10-31T08:36:53;14.30;99.90
8105;DHT22;4095;48.942;9.104;2023-10-31T08:39:19;14.30;99.90
8105;DHT22;4095;48.942;9.104;2023-10-31T08:41:51;14.30;99.90
8105;DHT22;4095;48.942;9.104;2023-10-31T08:44:17;14.30;99.90
8105;DHT22;4095;48.942;9.104;2023-10-31T08:46:42;14.20;99.90
8105;DHT22;4095;48.942;9.104;2023-10-31T08:49:08;14.30;99.90
8105;DHT22;4095;48.942;9.104;2023-10-31T08:51:33;14.30;99.90
8105;DHT22;4095;48.942;9.104;2023-10-31T08:53:59;14.30;99.90
8105;DHT22;4095;48.942;9.104;2023-10-31T08:56:24;14.30;99.90
8105;DHT22;4095;48.942;9.104;2023-10-31T08:58:52;14.30;99.90
8105;DHT22;4095;48.942;9.104;2023-10-31T09:01:18;14.30;99.90
8105;DHT22;4095;48.942;9.104;2023-10-31T09:03:44;14.40;99.90
8105;DHT22;4095;48.942;9.104;2023-10-31T09:06:10;14.60;99.90
8105;DHT22;4095;48.942;9.104;2023-10-31T09:08:36;14.70;99.90
8105;DHT22;4095;48.942;9.104;2023-10-31T09:11:03;14.80;99.90
8105;DHT22;4095;48.942;9.104;2023-10-31T09:13:29;14.80;99.90
8105;DHT22;4095;48.942;9.104;2023-10-31T09:15:54;14.80;99.90
8105;DHT22;4095;48.942;9.104;2023-10-31T09:18:20;14.70;99.90
8105;DHT22;4095;48.942;9.104;2023-10-31T09:20:46;14.60;99.90
8105;DHT22;4095;48.942;9.104;2023-10-31T09:23:11;14.50;99.90
8105;DHT22;4095;48.942;9.104;2023-10-31T09:25:37;14.50;99.90
8105;DHT22;4095;48.942;9.104;2023-10-31T09:28:02;14.60;99.90
8105;DHT22;4095;48.942;9.104;2023-10-31T09:30:28;14.70;99.90
8105;DHT22;4095;48.942;9.104;2023-10-31T09:32:54;14.80;99.90
8105;DHT22;4095;48.942;9.104;2023-10-31T09:35:19;14.90;99.90
8105;DHT22;4095;48.942;9.104;2023-10-31T09:37:45;15.10;99.90
8105;DHT22;4095;48.942;9.104;2023-10-31T09:40:14;15.20;99.90
8105;DHT22;4095;48.942;9.104;2023-10-31T09:42:40;15.40;99.90
8105;DHT22;4095;48.942;9.104;2023-10-31T09:45:06;15.60;99.90
8105;DHT22;4095;48.942;9.104;2023-10-31T09:47:31;15.70;99.90
8105;DHT22;4095;48.942;9.104;2023-10-31T09:49:58;15.80;99.90
8105;DHT22;4095;48.942;9.104;2023-10-31T09:52:25;15.90;99.90
8105;DHT22;4095;48.942;9.104;2023-10-31T09:54:52;16.10;99.90
8105;DHT22;4095;48.942;9.104;2023-10-31T09:57:18;16.10;99.90
8105;DHT22;4095;48.942;9.104;2023-10-31T09:59:44;16.00;99.90
8105;DHT22;4095;48.942;9.104;2023-10-31T10:02:10;15.90;99.90
8105;DHT22;4095;48.942;9.104;2023-10-31T10:04:37;15.80;99.90
8105;DHT22;4095;48.942;9.104;2023-10-31T10:07:03;15.80;99.90
8105;DHT22;4095;48.942;9.104;2023-10-31T10:09:29;15.90;99.90
8105;DHT22;4095;48.942;9.104;2023-10-31T10:11:59;16.00;99.90
8105;DHT22;4095;48.942;9.104;2023-10-31T10:14:26;16.20;99.90
8105;DHT22;4095;48.942;9.104;2023-10-31T10:16:54;16.40;99.90
8105;DHT22;4095;48.942;9.104;2023-10-31T10:19:21;16.80;99.90
8105;DHT22;4095;48.942;9.104;2023-10-31T10:21:58;16.90;99.90
8105;DHT22;4095;48.942;9.104;2023-10-31T10:24:24;17.30;99.90
8105;DHT22;4095;48.942;9.104;2023-10-31T10:26:50;17.70;99.90
8105;DHT22;4095;48.942;9.104;2023-10-31T10:29:16;17.90;99.90
8105;DHT22;4095;48.942;9.104;2023-10-31T10:31:42;17.90;99.90
8105;DHT22;4095;48.942;9.104;2023-10-31T10:34:08;17.80;99.90
8105;DHT22;4095;48.942;9.104;2023-10-31T10:36:35;18.00;99.90
8105;DHT22;4095;48.942;9.104;2023-10-31T10:39:01;18.60;99.90
8105;DHT22;4095;48.942;9.104;2023-10-31T10:41:27;19.20;99.90
8105;DHT22;4095;48.942;9.104;2023-10-31T10:44:05;19.80;99.90
8105;DHT22;4095;48.942;9.104;2023-10-31T10:46:33;19.50;99.90
8105;DHT22;4095;48.942;9.104;2023-10-31T10:49:03;19.30;99.90
8105;DHT22;4095;48.942;9.104;2023-10-31T10:54:09;19.20;99.90
8105;DHT22;4095;48.942;9.104;2023-10-31T10:56:43;19.70;99.90
8105;DHT22;4095;48.942;9.104;2023-10-31T10:59:20;20.20;99.90
8105;DHT22;4095;48.942;9.104;2023-10-31T11:01:49;20.40;99.90
8105;DHT22;4095;48.942;9.104;2023-10-31T11:04:16;20.80;99.60
8105;DHT22;4095;48.942;9.104;2023-10-31T11:06:42;20.60;99.40
8105;DHT22;4095;48.942;9.104;2023-10-31T11:09:09;20.10;99.90
8105;DHT22;4095;48.942;9.104;2023-10-31T11:11:37;19.90;99.90
8105;DHT22;4095;48.942;9.104;2023-10-31T11:14:03;19.40;99.90
8105;DHT22;4095;48.942;9.104;2023-10-31T11:16:37;18.80;99.90
8105;DHT22;4095;48.942;9.104;2023-10-31T11:19:06;18.10;99.90
8105;DHT22;4095;48.942;9.104;2023-10-31T11:21:34;17.70;99.90
8105;DHT22;4095;48.942;9.104;2023-10-31T11:24:00;17.40;99.90
8105;DHT22;4095;48.942;9.104;2023-10-31T11:26:26;17.60;99.90
8105;DHT22;4095;48.942;9.104;2023-10-31T11:29:00;17.80;99.90
8105;DHT22;4095;48.942;9.104;2023-10-31T11:31:27;18.10;99.90
8105;DHT22;4095;48.942;9.104;2023-10-31T11:33:53;18.40;99.90
8105;DHT22;4095;48.942;9.104;2023-10-31T11:36:19;18.90;99.90
8105;DHT22;4095;48.942;9.104;2023-10-31T11:38:45;18.80;99.90
8105;DHT22;4095;48.942;9.104;2023-10-31T11:41:11;18.40;99.90
8105;DHT22;4095;48.942;9.104;2023-10-31T11:46:27;17.40;99.90
8105;DHT22;4095;48.942;9.104;2023-10-31T11:48:55;17.10;99.90
8105;DHT22;4095;48.942;9.104;2023-10-31T11:51:25;17.00;99.90
8105;DHT22;4095;48.942;9.104;2023-10-31T11:53:51;16.90;99.90
8105;DHT22;4095;48.942;9.104;2023-10-31T11:56:18;16.90;99.90
8105;DHT22;4095;48.942;9.104;2023-10-31T11:58:44;16.90;99.90
8105;DHT22;4095;48.942;9.104;2023-10-31T12:01:10;17.20;99.90
8105;DHT22;4095;48.942;9.104;2023-10-31T12:03:43;17.40;99.90
8105;DHT22;4095;48.942;9.104;2023-10-31T12:06:13;17.30;99.90
8105;DHT22;4095;48.942;9.104;2023-10-31T12:08:41;17.80;99.90
8105;DHT22;4095;48.942;9.104;2023-10-31T12:11:11;18.30;99.90
8105;DHT22;4095;48.942;9.104;2023-10-31T12:13:50;18.70;99.90
8105;DHT22;4095;48.942;9.104;2023-10-31T12:16:16;19.20;99.90
8105;DHT22;4095;48.942;9.104;2023-10-31T12:18:41;19.10;99.90
8105;DHT22;4095;48.942;9.104;2023-10-31T12:21:07;18.80;99.90
8105;DHT22;4095;48.942;9.104;2023-10-31T12:23:34;18.40;99.90
8105;DHT22;4095;48.942;9.104;2023-10-31T12:25:59;18.00;99.90
8105;DHT22;4095;48.942;9.104;2023-10-31T12:28:25;17.60;99.90
8105;DHT22;4095;48.942;9.104;2023-10-31T12:30:53;17.30;99.90
8105;DHT22;4095;48.942;9.104;2023-10-31T12:33:20;17.00;99.90
8105;DHT22;4095;48.942;9.104;2023-10-31T12:35:52;16.80;99.90
8105;DHT22;4095;48.942;9.104;2023-10-31T12:38:21;16.60;99.90
8105;DHT22;4095;48.942;9.104;2023-10-31T12:40:47;16.50;99.90
8105;DHT22;4095;48.942;9.104;2023-10-31T12:43:12;16.40;99.90
8105;DHT22;4095;48.942;9.104;2023-10-31T12:45:38;16.40;99.90
8105;DHT22;4095;48.942;9.104;2023-10-31T12:50:32;16.10;99.90
8105;DHT22;4095;48.942;9.104;2023-10-31T12:52:58;16.00;99.90
8105;DHT22;4095;48.942;9.104;2023-10-31T12:55:26;15.80;99.90
8105;DHT22;4095;48.942;9.104;2023-10-31T12:57:53;15.80;99.90
8105;DHT22;4095;48.942;9.104;2023-10-31T13:00:20;15.70;99.90
8105;DHT22;4095;48.942;9.104;2023-10-31T13:02:51;15.70;99.90
8105;DHT22;4095;48.942;9.104;2023-10-31T13:05:17;15.80;99.90
8105;DHT22;4095;48.942;9.104;2023-10-31T13:07:50;15.80;99.90
8105;DHT22;4095;48.942;9.104;2023-10-31T13:10:17;15.80;99.90
8105;DHT22;4095;48.942;9.104;2023-10-31T13:12:46;15.70;99.90
8105;DHT22;4095;48.942;9.104;2023-10-31T13:15:13;15.70;99.90
8105;DHT22;4095;48.942;9.104;2023-10-31T13:17:40;15.70;99.90
8105;DHT22;4095;48.942;9.104;2023-10-31T13:20:08;15.60;99.90
8105;DHT22;4095;48.942;9.104;2023-10-31T13:22:35;15.60;99.90
8105;DHT22;4095;48.942;9.104;2023-10-31T13:25:02;15.70;99.90
8105;DHT22;4095;48.942;9.104;2023-10-31T13:27:31;15.60;99.90
8105;DHT22;4095;48.942;9.104;2023-10-31T13:29:57;15.60;99.90
8105;DHT22;4095;48.942;9.104;2023-10-31T13:32:22;15.60;99.90
8105;DHT22;4095;48.942;9.104;2023-10-31T13:34:48;15.70;99.90
8105;DHT22;4095;48.942;9.104;2023-10-31T13:37:14;15.80;99.90
8105;DHT22;4095;48.942;9.104;2023-10-31T13:39:39;16.00;99.90
8105;DHT22;4095;48.942;9.104;2023-10-31T13:42:05;16.10;99.90
8105;DHT22;4095;48.942;9.104;2023-10-31T13:44:31;16.10;99.90
8105;DHT22;4095;48.942;9.104;2023-10-31T13:46:56;16.10;99.90
8105;DHT22;4095;48.942;9.104;2023-10-31T13:49:22;16.20;99.90
8105;DHT22;4095;48.942;9.104;2023-10-31T13:51:47;16.20;99.90
8105;DHT22;4095;48.942;9.104;2023-10-31T13:54:14;16.20;99.90
8105;DHT22;4095;48.942;9.104;2023-10-31T13:56:40;16.10;99.90
8105;DHT22;4095;48.942;9.104;2023-10-31T13:59:05;16.10;99.90
8105;DHT22;4095;48.942;9.104;2023-10-31T14:01:31;16.10;99.90
8105;DHT22;4095;48.942;9.104;2023-10-31T14:03:56;15.90;99.90
8105;DHT22;4095;48.942;9.104;2023-10-31T14:06:22;15.90;99.90
8105;DHT22;4095;48.942;9.104;2023-10-31T14:08:47;15.90;99.90
8105;DHT22;4095;48.942;9.104;2023-10-31T14:11:13;15.90;99.90
8105;DHT22;4095;48.942;9.104;2023-10-31T14:13:39;15.80;99.90
8105;DHT22;4095;48.942;9.104;2023-10-31T14:16:06;15.90;99.90
8105;DHT22;4095;48.942;9.104;2023-10-31T14:18:32;15.90;99.90
8105;DHT22;4095;48.942;9.104;2023-10-31T14:20:57;15.90;99.90
8105;DHT22;4095;48.942;9.104;2023-10-31T14:23:23;15.90;99.90
8105;DHT22;4095;48.942;9.104;2023-10-31T14:25:50;15.90;99.90
8105;DHT22;4095;48.942;9.104;2023-10-31T14:28:15;15.90;99.90
8105;DHT22;4095;48.942;9.104;2023-10-31T14:30:41;15.90;99.90
8105;DHT22;4095;48.942;9.104;2023-10-31T14:33:06;15.90;99.90
8105;DHT22;4095;48.942;9.104;2023-10-31T14:35:32;15.90;99.90
8105;DHT22;4095;48.942;9.104;2023-10-31T14:37:58;15.80;99.90
8105;DHT22;4095;48.942;9.104;2023-10-31T14:40:23;15.80;99.90
8105;DHT22;4095;48.942;9.104;2023-10-31T14:42:49;15.80;99.90
8105;DHT22;4095;48.942;9.104;2023-10-31T14:45:15;15.70;99.90
8105;DHT22;4095;48.942;9.104;2023-10-31T14:47:40;15.70;99.90
8105;DHT22;4095;48.942;9.104;2023-10-31T14:50:06;15.60;99.90
8105;DHT22;4095;48.942;9.104;2023-10-31T14:52:32;15.60;99.90
8105;DHT22;4095;48.942;9.104;2023-10-31T14:54:57;15.60;99.90
8105;DHT22;4095;48.942;9.104;2023-10-31T14:57:23;15.60;99.90
8105;DHT22;4095;48.942;9.104;2023-10-31T14:59:49;15.60;99.90
8105;DHT22;4095;48.942;9.104;2023-10-31T15:02:14;15.60;99.90
8105;DHT22;4095;48.942;9.104;2023-10-31T15:04:40;15.50;99.90
8105;DHT22;4095;48.942;9.104;2023-10-31T15:07:05;15.50;99.90
8105;DHT22;4095;48.942;9.104;2023-10-31T15:09:31;15.50;99.90
8105;DHT22;4095;48.942;9.104;2023-10-31T15:11:56;15.40;99.90
8105;DHT22;4095;48.942;9.104;2023-10-31T15:14:22;15.40;99.90
8105;DHT22;4095;48.942;9.104;2023-10-31T15:16:47;15.30;99.90
8105;DHT22;4095;48.942;9.104;2023-10-31T15:19:13;15.20;99.90
8105;DHT22;4095;48.942;9.104;2023-10-31T15:21:39;15.10;99.90
8105;DHT22;4095;48.942;9.104;2023-10-31T15:24:04;15.10;99.90
8105;DHT22;4095;48.942;9.104;2023-10-31T15:26:33;15.00;99.90
8105;DHT22;4095;48.942;9.104;2023-10-31T15:28:58;14.90;99.90
8105;DHT22;4095;48.942;9.104;2023-10-31T15:31:24;14.80;99.90
8105;DHT22;4095;48.942;9.104;2023-10-31T15:33:50;14.90;99.90
8105;DHT22;4095;48.942;9.104;2023-10-31T15:36:15;14.80;99.90
8105;DHT22;4095;48.942;9.104;2023-10-31T15:38:41;14.80;99.90
8105;DHT22;4095;48.942;9.104;2023-10-31T15:41:07;14.80;99.90
8105;DHT22;4095;48.942;9.104;2023-10-31T15:43:33;14.80;99.90
8105;DHT22;4095;48.942;9.104;2023-10-31T15:45:59;14.70;99.90
8105;DHT22;4095;48.942;9.104;2023-10-31T15:48:24;14.70;99.90
8105;DHT22;4095;48.942;9.104;2023-10-31T15:50:50;14.80;99.90
8105;DHT22;4095;48.942;9.104;2023-10-31T15:53:15;14.80;99.90
8105;DHT22;4095;48.942;9.104;2023-10-31T15:55:41;14.80;99.90
8105;DHT22;4095;48.942;9.104;2023-10-31T15:58:10;14.80;99.90
8105;DHT22;4095;48.942;9.104;2023-10-31T16:00:36;14.80;99.90
8105;DHT22;4095;48.942;9.104;2023-10-31T16:03:02;14.70;99.90